Time;durP1;ratioP1;P1;durP2;ratioP2;P2;SDS_P1;SDS_P2;PMS_P1;PMS_P2;Temp;Humidity;BMP_temperature;BMP_pressure;BME280_temperature;BME280_humidity;BME280_pressure;Samples;Min_cycle;Max_cycle;Signal;HPM_P1;HPM_P2
2022/04/01 00:00:39;;;;;;;5.95;3.47;;;;;;;;;;4940863;28;100277;-73
2022/04/01 00:03:06;;;;;;;8.23;3.90;;;;;;;;;;4972842;28;100722;-73
2022/04/01 00:05:33;;;;;;;6.70;3.45;;;;;;;;;;4957020;28;100190;-73
2022/04/01 00:08:00;;;;;;;7.10;4.20;;;;;;;;;;4973853;28;100275;-73
2022/04/01 00:10:27;;;;;;;5.80;3.88;;;;;;;;;;4956802;28;101338;-73
2022/04/01 00:12:55;;;;;;;6.35;4.20;;;;;;;;;;4973730;28;100558;-73
2022/04/01 00:15:22;;;;;;;5.97;3.72;;;;;;;;;;4956956;28;100264;-73
2022/04/01 00:17:49;;;;;;;5.78;3.60;;;;;;;;;;4922256;28;100119;-73
2022/04/01 00:20:18;;;;;;;6.57;3.95;;;;;;;;;;4923003;28;100345;-73
2022/04/01 00:22:45;;;;;;;7.10;3.90;;;;;;;;;;4956861;28;100716;-73
2022/04/01 00:25:13;;;;;;;6.00;3.92;;;;;;;;;;4940819;28;100024;-73
2022/04/01 00:27:39;;;;;;;6.90;4.43;;;;;;;;;;4956923;28;100131;-74
2022/04/01 00:30:07;;;;;;;6.13;3.50;;;;;;;;;;4940005;28;100400;-74
2022/04/01 00:32:34;;;;;;;7.40;4.45;;;;;;;;;;4940726;28;100770;-73
2022/04/01 00:35:02;;;;;;;8.32;5.25;;;;;;;;;;4956129;28;100022;-73
2022/04/01 00:37:28;;;;;;;8.55;4.25;;;;;;;;;;4940629;28;100124;-74
2022/04/01 00:39:55;;;;;;;7.20;3.85;;;;;;;;;;4972419;28;100316;-74
2022/04/01 00:42:23;;;;;;;6.97;4.47;;;;;;;;;;4955214;28;101027;-73
2022/04/01 00:44:49;;;;;;;6.80;4.35;;;;;;;;;;4955461;28;102475;-75
2022/04/01 00:47:18;;;;;;;8.07;4.72;;;;;;;;;;4972699;28;100068;-72
2022/04/01 00:49:45;;;;;;;8.02;4.72;;;;;;;;;;4923241;28;100248;-72
2022/04/01 00:52:15;;;;;;;8.95;5.07;;;;;;;;;;4907104;28;100922;-72
2022/04/01 00:54:42;;;;;;;7.30;4.43;;;;;;;;;;4971901;28;100137;-72
2022/04/01 00:57:11;;;;;;;7.50;4.53;;;;;;;;;;4955996;28;100221;-72
2022/04/01 00:59:38;;;;;;;7.43;4.63;;;;;;;;;;4955086;28;100260;-72
2022/04/01 01:02:05;;;;;;;8.05;4.85;;;;;;;;;;4972447;28;100758;-73
2022/04/01 01:04:33;;;;;;;7.53;4.78;;;;;;;;;;4935344;28;102234;-72
2022/04/01 01:07:00;;;;;;;8.57;4.97;;;;;;;;;;4951278;28;100150;-72
2022/04/01 01:09:28;;;;;;;7.43;4.60;;;;;;;;;;4936016;28;100224;-72
2022/04/01 01:11:56;;;;;;;7.00;4.43;;;;;;;;;;4951269;28;101816;-72
2022/04/01 01:14:25;;;;;;;7.70;4.95;;;;;;;;;;4936187;28;100780;-74
2022/04/01 01:16:53;;;;;;;6.78;3.88;;;;;;;;;;4934796;28;100136;-73
2022/04/01 01:19:20;;;;;;;7.03;4.93;;;;;;;;;;4950060;28;100388;-72
2022/04/01 01:21:50;;;;;;;6.43;4.18;;;;;;;;;;4919965;28;100567;-72
2022/04/01 01:24:17;;;;;;;6.75;4.38;;;;;;;;;;4934769;28;100200;-73
2022/04/01 01:26:49;;;;;;;6.40;4.18;;;;;;;;;;4966845;28;101276;-72
2022/04/01 01:29:22;;;;;;;8.27;4.63;;;;;;;;;;4951210;28;100249;-73
2022/04/01 01:31:49;;;;;;;5.95;4.43;;;;;;;;;;4951323;28;100611;-74
2022/04/01 01:34:17;;;;;;;6.55;4.32;;;;;;;;;;4951797;28;100234;-73
2022/04/01 01:36:44;;;;;;;5.95;3.90;;;;;;;;;;4935789;28;100184;-71
2022/04/01 01:39:10;;;;;;;7.82;4.57;;;;;;;;;;4951271;28;100296;-73
2022/04/01 01:41:37;;;;;;;7.18;4.43;;;;;;;;;;4951346;28;100654;-73
2022/04/01 01:44:05;;;;;;;6.78;4.28;;;;;;;;;;4951575;28;100214;-70
2022/04/01 01:46:32;;;;;;;7.07;4.45;;;;;;;;;;4935868;28;100146;-74
2022/04/01 01:48:59;;;;;;;7.07;4.40;;;;;;;;;;4951017;28;100266;-73
2022/04/01 01:56:59;;;;;;;8.27;4.57;;;;;;;;;;4951139;28;100124;-73
2022/04/01 01:59:26;;;;;;;7.13;4.15;;;;;;;;;;4949832;28;100287;-73
2022/04/01 02:06:21;;;;;;;6.72;4.53;;;;;;;;;;4946013;28;100147;-73
2022/04/01 02:08:50;;;;;;;7.28;4.75;;;;;;;;;;4932195;28;100085;-73
2022/04/01 02:11:18;;;;;;;7.70;4.78;;;;;;;;;;4933438;28;100843;-73
2022/04/01 02:13:45;;;;;;;7.28;4.70;;;;;;;;;;4932606;28;100542;-74
2022/04/01 02:16:13;;;;;;;7.88;5.03;;;;;;;;;;4932987;28;100020;-73
2022/04/01 02:18:41;;;;;;;7.97;5.20;;;;;;;;;;4915299;28;100136;-73
2022/04/01 02:21:11;;;;;;;6.80;4.45;;;;;;;;;;4915851;28;100424;-73
2022/04/01 02:23:38;;;;;;;8.52;5.30;;;;;;;;;;4933248;28;101072;-73
2022/04/01 02:26:07;;;;;;;7.45;4.80;;;;;;;;;;4917123;28;100184;-73
2022/04/01 02:28:38;;;;;;;7.65;4.82;;;;;;;;;;4932456;28;100147;-74
2022/04/01 02:31:05;;;;;;;6.90;4.45;;;;;;;;;;4931837;28;101659;-74
2022/04/01 02:33:51;;;;;;;7.60;4.60;;;;;;;;;;4933046;28;100570;-73
2022/04/01 02:36:18;;;;;;;8.65;4.57;;;;;;;;;;4931796;28;100209;-74
2022/04/01 02:38:45;;;;;;;6.47;4.40;;;;;;;;;;4932285;28;100181;-73
2022/04/01 02:41:12;;;;;;;7.53;4.70;;;;;;;;;;4915779;28;100518;-73
2022/04/01 02:43:39;;;;;;;6.13;4.00;;;;;;;;;;4931960;28;100910;-73
2022/04/01 02:46:10;;;;;;;7.13;4.53;;;;;;;;;;4931150;28;100233;-74
2022/04/01 02:48:57;;;;;;;8.07;4.95;;;;;;;;;;4932829;28;99959;-73
2022/04/01 02:51:37;;;;;;;8.18;5.13;;;;;;;;;;4915153;28;100355;-73
2022/04/01 02:54:13;;;;;;;8.13;4.90;;;;;;;;;;4932671;28;101917;-73
2022/04/01 02:56:40;;;;;;;5.60;3.97;;;;;;;;;;4915565;28;100086;-73
2022/04/01 02:59:08;;;;;;;7.15;4.30;;;;;;;;;;4916030;28;100210;-74
2022/04/01 03:01:38;;;;;;;7.45;4.57;;;;;;;;;;4884304;28;103305;-73
2022/04/01 03:04:09;;;;;;;6.80;4.88;;;;;;;;;;4943671;28;100707;-73
2022/04/01 03:06:43;;;;;;;7.93;4.90;;;;;;;;;;4939620;28;100081;-73
2022/04/01 03:09:11;;;;;;;7.68;5.22;;;;;;;;;;4954798;28;100021;-73
2022/04/01 03:11:42;;;;;;;6.82;4.50;;;;;;;;;;4939090;28;100300;-74
2022/04/01 03:14:22;;;;;;;7.70;4.25;;;;;;;;;;4942868;28;100571;-73
2022/04/01 03:17:22;;;;;;;7.25;4.07;;;;;;;;;;4903938;28;100119;-73
2022/04/01 03:19:48;;;;;;;6.18;4.40;;;;;;;;;;4958444;28;99995;-74
2022/04/01 03:22:15;;;;;;;6.88;4.50;;;;;;;;;;4941429;28;100777;-74
2022/04/01 03:24:43;;;;;;;8.13;5.05;;;;;;;;;;4973006;28;102945;-74
2022/04/01 03:27:10;;;;;;;8.00;4.75;;;;;;;;;;4971998;28;100209;-73
2022/04/01 03:29:37;;;;;;;8.43;4.55;;;;;;;;;;4971928;28;100068;-72
2022/04/01 03:32:04;;;;;;;6.60;4.20;;;;;;;;;;4971013;28;100375;-72
2022/04/01 03:34:32;;;;;;;5.88;3.70;;;;;;;;;;4954806;28;100654;-73
2022/04/01 03:37:00;;;;;;;6.43;4.43;;;;;;;;;;4954851;28;99990;-72
2022/04/01 03:39:27;;;;;;;6.93;4.10;;;;;;;;;;4971292;28;100018;-73
2022/04/01 03:41:57;;;;;;;6.45;4.25;;;;;;;;;;4953790;28;103860;-73
2022/04/01 03:44:25;;;;;;;6.68;4.20;;;;;;;;;;4955034;28;100699;-73
2022/04/01 03:47:18;;;;;;;5.38;3.00;;;;;;;;;;4947590;28;100299;-73
2022/04/01 03:49:51;;;;;;;7.78;4.72;;;;;;;;;;4954965;28;100037;-73
2022/04/01 03:52:20;;;;;;;6.38;4.10;;;;;;;;;;4921704;28;100469;-73
2022/04/01 03:54:47;;;;;;;7.53;4.60;;;;;;;;;;4938275;28;100890;-73
2022/04/01 03:57:53;;;;;;;7.68;3.95;;;;;;;;;;4971619;28;100024;-73
2022/04/01 04:00:52;;;;;;;6.40;4.18;;;;;;;;;;4959273;28;100086;-72
2022/04/01 04:03:25;;;;;;;6.57;3.88;;;;;;;;;;4969846;28;100613;-74
2022/04/01 04:05:52;;;;;;;6.35;4.55;;;;;;;;;;4970951;28;100684;-73
2022/04/01 04:08:22;;;;;;;6.57;4.53;;;;;;;;;;4922280;28;99876;-72
2022/04/01 04:10:52;;;;;;;8.23;4.90;;;;;;;;;;4952408;28;100987;-72
2022/04/01 04:13:38;;;;;;;6.45;4.32;;;;;;;;;;4957232;28;100541;-73
2022/04/01 04:16:31;;;;;;;6.18;4.28;;;;;;;;;;4937298;28;104419;-73
2022/04/01 04:19:09;;;;;;;6.25;3.83;;;;;;;;;;4944667;28;100165;-73
2022/04/01 04:21:50;;;;;;;8.60;4.70;;;;;;;;;;4954924;28;100221;-73
2022/04/01 04:24:18;;;;;;;7.53;4.85;;;;;;;;;;4921678;28;100383;-73
2022/04/01 04:26:48;;;;;;;9.02;5.13;;;;;;;;;;4953865;28;100670;-73
2022/04/01 04:29:16;;;;;;;7.07;4.40;;;;;;;;;;4937267;28;100155;-73
2022/04/01 04:31:57;;;;;;;7.07;4.43;;;;;;;;;;4939187;28;100108;-73
2022/04/01 04:34:38;;;;;;;6.78;4.93;;;;;;;;;;4937567;28;100563;-73
2022/04/01 04:37:09;;;;;;;6.20;4.18;;;;;;;;;;4938513;28;100542;-73
2022/04/01 04:39:41;;;;;;;5.80;3.80;;;;;;;;;;4954202;28;99875;-73
2022/04/01 04:42:09;;;;;;;6.25;3.88;;;;;;;;;;4953902;28;100100;-73
2022/04/01 04:44:37;;;;;;;7.65;4.15;;;;;;;;;;4954009;28;100880;-73
2022/04/01 04:47:07;;;;;;;8.65;4.57;;;;;;;;;;4954333;28;100651;-73
2022/04/01 04:49:34;;;;;;;8.80;4.75;;;;;;;;;;4953881;28;100907;-73
2022/04/01 04:52:02;;;;;;;7.18;4.32;;;;;;;;;;4938088;28;100446;-73
2022/04/01 04:54:43;;;;;;;7.75;4.30;;;;;;;;;;4952894;28;100340;-75
2022/04/01 04:57:21;;;;;;;7.88;4.88;;;;;;;;;;4938907;28;100663;-73
2022/04/01 04:59:49;;;;;;;8.20;4.85;;;;;;;;;;4938029;28;100126;-73
2022/04/01 05:02:39;;;;;;;8.70;5.32;;;;;;;;;;4953498;28;100100;-73
2022/04/01 05:05:09;;;;;;;7.07;4.75;;;;;;;;;;4936603;28;102773;-73
2022/04/01 05:08:23;;;;;;;8.65;5.35;;;;;;;;;;4910301;28;100568;-74
2022/04/01 05:11:37;;;;;;;8.63;5.35;;;;;;;;;;4901957;28;100192;-73
2022/04/01 05:14:26;;;;;;;8.18;4.93;;;;;;;;;;4944367;28;100085;-74
2022/04/01 05:16:54;;;;;;;8.98;5.03;;;;;;;;;;4937368;28;100607;-73
2022/04/01 05:19:28;;;;;;;10.18;6.00;;;;;;;;;;4937320;28;101719;-73
2022/04/01 05:22:05;;;;;;;9.52;6.18;;;;;;;;;;4953119;28;100191;-73
2022/04/01 05:24:59;;;;;;;8.90;5.65;;;;;;;;;;4954525;28;100353;-74
2022/04/01 05:27:30;;;;;;;8.75;5.93;;;;;;;;;;4953240;28;101874;-73
2022/04/01 05:30:20;;;;;;;10.43;5.57;;;;;;;;;;4956213;28;100797;-74
2022/04/01 05:32:58;;;;;;;10.43;6.78;;;;;;;;;;4938207;28;100205;-73
2022/04/01 05:35:38;;;;;;;10.48;6.63;;;;;;;;;;4969140;28;99985;-73
2022/04/01 05:38:09;;;;;;;11.73;7.15;;;;;;;;;;4952507;28;100519;-73
2022/04/01 05:40:39;;;;;;;11.35;7.35;;;;;;;;;;4952909;28;100619;-73
2022/04/01 05:43:10;;;;;;;12.43;7.15;;;;;;;;;;4969053;28;100318;-73
2022/04/01 05:45:37;;;;;;;13.13;8.23;;;;;;;;;;4937389;28;100003;-73
2022/04/01 05:48:11;;;;;;;7.47;5.60;;;;;;;;;;4936899;28;100422;-74
2022/04/01 05:50:39;;;;;;;13.07;7.82;;;;;;;;;;4952185;28;102124;-73
2022/04/01 05:53:07;;;;;;;11.68;7.13;;;;;;;;;;4936847;28;100066;-73
2022/04/01 05:55:44;;;;;;;12.23;7.88;;;;;;;;;;4937662;28;100242;-73
2022/04/01 05:58:24;;;;;;;8.20;5.38;;;;;;;;;;4952146;28;104182;-72
2022/04/01 06:01:26;;;;;;;11.50;7.28;;;;;;;;;;4952692;28;101724;-73
2022/04/01 06:04:20;;;;;;;11.50;7.55;;;;;;;;;;4951979;28;100193;-72
2022/04/01 06:06:48;;;;;;;10.93;7.60;;;;;;;;;;4936779;28;100019;-73
2022/04/01 06:09:36;;;;;;;12.90;8.02;;;;;;;;;;4936820;28;102876;-72
2022/04/01 06:12:37;;;;;;;14.07;8.23;;;;;;;;;;4953440;28;100830;-72
2022/04/01 06:15:23;;;;;;;13.40;9.30;;;;;;;;;;4932581;28;100200;-72
2022/04/01 06:18:26;;;;;;;15.70;8.18;;;;;;;;;;4969789;28;99987;-72
2022/04/01 06:20:53;;;;;;;15.00;9.80;;;;;;;;;;4952121;28;100883;-72
2022/04/01 06:23:38;;;;;;;13.65;8.73;;;;;;;;;;4935780;28;100639;-72
2022/04/01 06:26:06;;;;;;;15.13;10.27;;;;;;;;;;4951892;28;100199;-72
2022/04/01 06:28:35;;;;;;;14.07;8.27;;;;;;;;;;4952501;28;100049;-72
2022/04/01 06:31:05;;;;;;;13.63;8.02;;;;;;;;;;4936092;28;100323;-72
2022/04/01 06:33:54;;;;;;;11.40;7.68;;;;;;;;;;4952536;28;101329;-72
2022/04/01 06:37:00;;;;;;;13.55;9.18;;;;;;;;;;4954047;28;100110;-72
2022/04/01 06:39:49;;;;;;;13.63;9.38;;;;;;;;;;4968506;28;100125;-74
2022/04/01 06:42:27;;;;;;;16.80;10.00;;;;;;;;;;4951171;28;100479;-74
2022/04/01 06:45:15;;;;;;;16.08;9.18;;;;;;;;;;4954062;28;101101;-75
2022/04/01 06:48:11;;;;;;;13.43;8.05;;;;;;;;;;4928233;28;100225;-73
2022/04/01 06:51:14;;;;;;;12.13;8.13;;;;;;;;;;4969388;28;100257;-74
2022/04/01 06:54:19;;;;;;;12.95;8.90;;;;;;;;;;4946187;28;100855;-73
2022/04/01 06:57:05;;;;;;;13.00;9.02;;;;;;;;;;4968770;28;100618;-73
2022/04/01 06:59:52;;;;;;;12.43;8.40;;;;;;;;;;4938507;28;99966;-73
2022/04/01 07:02:19;;;;;;;13.63;9.02;;;;;;;;;;4952207;28;100079;-75
2022/04/01 07:04:46;;;;;;;11.40;7.63;;;;;;;;;;4951412;28;100311;-74
2022/04/01 07:07:13;;;;;;;13.07;8.70;;;;;;;;;;4969175;28;100637;-73
2022/04/01 07:09:40;;;;;;;11.60;7.60;;;;;;;;;;4968916;28;100002;-73
2022/04/01 07:12:07;;;;;;;12.48;8.73;;;;;;;;;;4951731;28;100096;-73
2022/04/01 07:14:33;;;;;;;13.00;8.63;;;;;;;;;;4969019;28;100209;-73
2022/04/01 07:17:01;;;;;;;11.50;7.80;;;;;;;;;;4969142;28;100567;-73
2022/04/01 07:19:28;;;;;;;11.65;8.35;;;;;;;;;;4951705;28;100312;-74
2022/04/01 07:21:54;;;;;;;13.07;8.20;;;;;;;;;;4950349;28;100760;-73
2022/04/01 07:24:21;;;;;;;10.98;7.05;;;;;;;;;;4929663;28;100506;-73
2022/04/01 07:26:49;;;;;;;12.88;8.23;;;;;;;;;;4951818;28;101113;-73
2022/04/01 07:29:16;;;;;;;10.73;7.55;;;;;;;;;;4951446;28;101701;-75
2022/04/01 07:34:38;;;;;;;13.13;9.18;;;;;;;;;;4954263;28;100525;-73
2022/04/01 07:37:05;;;;;;;12.27;8.93;;;;;;;;;;4935174;28;101098;-73
2022/04/01 07:39:32;;;;;;;13.68;8.88;;;;;;;;;;4951887;28;100121;-73
2022/04/01 07:41:59;;;;;;;13.05;8.52;;;;;;;;;;4951623;28;99959;-73
2022/04/01 07:44:26;;;;;;;17.63;11.20;;;;;;;;;;4951078;28;100329;-73
2022/04/01 07:46:53;;;;;;;15.38;9.77;;;;;;;;;;4951319;28;101162;-73
2022/04/01 07:49:20;;;;;;;16.13;10.90;;;;;;;;;;4935374;28;100138;-73
2022/04/01 07:52:13;;;;;;;15.85;9.43;;;;;;;;;;4955105;28;100148;-73
2022/04/01 07:54:46;;;;;;;15.00;10.05;;;;;;;;;;4968820;28;100331;-73
2022/04/01 07:57:13;;;;;;;15.77;9.60;;;;;;;;;;4918916;28;101565;-73
2022/04/01 07:59:40;;;;;;;18.38;11.02;;;;;;;;;;4954666;28;100149;-74
2022/04/01 08:02:07;;;;;;;18.05;11.45;;;;;;;;;;4939028;28;100000;-74
2022/04/01 08:04:34;;;;;;;17.73;9.98;;;;;;;;;;4954331;28;100348;-74
2022/04/01 08:07:07;;;;;;;20.60;12.35;;;;;;;;;;4971907;28;101099;-73
2022/04/01 08:09:35;;;;;;;19.80;12.50;;;;;;;;;;4972085;28;99990;-73
2022/04/01 08:12:02;;;;;;;22.02;12.57;;;;;;;;;;4938320;28;100116;-74
2022/04/01 08:14:29;;;;;;;20.50;11.02;;;;;;;;;;4954345;28;100323;-73
2022/04/01 08:16:56;;;;;;;19.10;12.25;;;;;;;;;;4972239;28;101697;-73
2022/04/01 08:19:24;;;;;;;22.77;12.90;;;;;;;;;;4937943;28;100134;-73
2022/04/01 08:21:50;;;;;;;23.50;13.65;;;;;;;;;;4938266;28;101281;-74
2022/04/01 08:24:17;;;;;;;24.45;13.75;;;;;;;;;;4952747;28;100318;-73
2022/04/01 08:26:44;;;;;;;23.23;13.40;;;;;;;;;;4937292;28;100959;-73
2022/04/01 08:29:13;;;;;;;20.63;13.02;;;;;;;;;;4954000;28;100235;-73
2022/04/01 08:31:40;;;;;;;21.40;12.98;;;;;;;;;;4970585;28;100070;-73
2022/04/01 08:34:07;;;;;;;20.05;12.43;;;;;;;;;;4970255;28;100548;-75
2022/04/01 08:36:37;;;;;;;22.23;13.60;;;;;;;;;;4953248;28;100653;-74
2022/04/01 08:39:04;;;;;;;20.60;13.00;;;;;;;;;;4970926;28;100058;-73
2022/04/01 08:41:31;;;;;;;21.02;13.52;;;;;;;;;;4971414;28;101521;-73
2022/04/01 08:43:58;;;;;;;20.90;12.40;;;;;;;;;;4936831;28;101416;-72
2022/04/01 08:46:25;;;;;;;20.48;12.15;;;;;;;;;;4970495;28;100561;-73
2022/04/01 08:48:52;;;;;;;20.58;11.25;;;;;;;;;;4970177;28;99980;-72
2022/04/01 08:51:19;;;;;;;21.65;13.88;;;;;;;;;;4953319;28;100082;-72
2022/04/01 08:53:46;;;;;;;24.75;14.18;;;;;;;;;;4967871;28;100710;-73
2022/04/01 08:56:14;;;;;;;21.75;13.25;;;;;;;;;;4970038;28;100630;-73
2022/04/01 08:58:40;;;;;;;24.60;13.65;;;;;;;;;;4970401;28;100149;-73
2022/04/01 09:01:07;;;;;;;23.58;13.73;;;;;;;;;;4970498;28;100136;-73
2022/04/01 09:03:35;;;;;;;19.98;12.80;;;;;;;;;;4969870;28;100398;-73
2022/04/01 09:06:04;;;;;;;19.13;11.45;;;;;;;;;;4953036;28;101901;-74
2022/04/01 09:08:37;;;;;;;23.45;14.70;;;;;;;;;;4952759;28;100081;-74
2022/04/01 09:11:08;;;;;;;24.23;15.10;;;;;;;;;;4970295;28;100022;-74
2022/04/01 09:13:47;;;;;;;22.67;12.70;;;;;;;;;;4951749;28;100840;-74
2022/04/01 09:16:36;;;;;;;23.05;13.70;;;;;;;;;;4968705;28;100637;-74
2022/04/01 09:19:04;;;;;;;25.45;15.07;;;;;;;;;;4951887;28;100208;-74
2022/04/01 09:21:32;;;;;;;23.15;13.57;;;;;;;;;;4952947;28;100636;-74
2022/04/01 09:24:00;;;;;;;20.55;12.23;;;;;;;;;;4969481;28;100247;-74
2022/04/01 09:26:33;;;;;;;19.23;11.85;;;;;;;;;;4952779;28;101977;-74
2022/04/01 09:29:00;;;;;;;21.88;12.40;;;;;;;;;;4952686;28;100240;-74
2022/04/01 09:31:37;;;;;;;20.60;12.43;;;;;;;;;;4953474;28;100160;-74
2022/04/01 09:34:09;;;;;;;17.40;10.80;;;;;;;;;;4969674;28;100448;-74
2022/04/01 09:36:37;;;;;;;20.08;12.13;;;;;;;;;;4952582;28;102214;-74
2022/04/01 09:39:14;;;;;;;23.42;13.38;;;;;;;;;;4970563;28;99990;-74
2022/04/01 09:41:45;;;;;;;19.25;11.27;;;;;;;;;;4953206;28;99983;-74
2022/04/01 09:44:29;;;;;;;18.90;11.10;;;;;;;;;;4970501;28;100533;-74
2022/04/01 09:47:06;;;;;;;21.52;12.95;;;;;;;;;;4952647;28;101970;-75
2022/04/01 09:49:36;;;;;;;17.35;11.23;;;;;;;;;;4953246;28;99968;-74
2022/04/01 09:52:08;;;;;;;20.05;12.43;;;;;;;;;;4970791;28;100004;-74
2022/04/01 09:54:49;;;;;;;21.08;12.40;;;;;;;;;;4952830;28;100319;-74
2022/04/01 09:57:17;;;;;;;18.75;12.18;;;;;;;;;;4970336;28;100938;-74
2022/04/01 09:59:44;;;;;;;19.65;11.88;;;;;;;;;;4953560;28;100036;-74
2022/04/01 10:02:11;;;;;;;17.77;11.57;;;;;;;;;;4970761;28;99892;-74
2022/04/01 10:04:38;;;;;;;19.88;13.07;;;;;;;;;;4952008;28;100573;-72
2022/04/01 10:07:05;;;;;;;19.67;12.18;;;;;;;;;;4953069;28;101178;-73
2022/04/01 10:09:32;;;;;;;16.25;10.70;;;;;;;;;;4936735;28;100081;-74
2022/04/01 10:12:19;;;;;;;15.18;9.93;;;;;;;;;;4941905;28;100312;-74
2022/04/01 10:14:46;;;;;;;16.38;10.32;;;;;;;;;;4969706;28;100369;-74
2022/04/01 10:17:26;;;;;;;17.83;11.45;;;;;;;;;;4939257;28;100622;-74
2022/04/01 10:19:53;;;;;;;19.60;12.95;;;;;;;;;;4952360;28;100152;-74
2022/04/01 10:22:20;;;;;;;18.25;12.15;;;;;;;;;;4952632;28;100099;-74
2022/04/01 10:24:52;;;;;;;22.00;13.85;;;;;;;;;;4951603;28;100427;-74
2022/04/01 10:27:32;;;;;;;20.35;11.60;;;;;;;;;;4936539;28;101978;-74
2022/04/01 10:29:59;;;;;;;20.25;12.75;;;;;;;;;;4968178;28;100047;-75
2022/04/01 10:32:29;;;;;;;19.27;13.18;;;;;;;;;;4920330;28;100615;-73
2022/04/01 10:34:58;;;;;;;19.45;12.60;;;;;;;;;;4936352;28;100492;-72
2022/04/01 10:37:32;;;;;;;21.75;12.95;;;;;;;;;;4937653;28;100693;-74
2022/04/01 10:40:15;;;;;;;22.40;12.80;;;;;;;;;;4951457;28;100153;-74
2022/04/01 10:42:45;;;;;;;18.23;11.25;;;;;;;;;;4953722;28;100177;-75
2022/04/01 10:45:15;;;;;;;17.70;10.63;;;;;;;;;;4967852;28;100927;-74
2022/04/01 10:53:31;;;;;;;18.75;11.73;;;;;;;;;;4956102;28;100095;-73
2022/04/01 10:56:23;;;;;;;17.23;10.75;;;;;;;;;;4951538;28;100301;-73
2022/04/01 10:59:12;;;;;;;20.95;13.15;;;;;;;;;;4951501;28;102974;-74
2022/04/01 11:01:39;;;;;;;19.88;11.95;;;;;;;;;;4969363;28;100057;-74
2022/04/01 11:04:12;;;;;;;17.17;10.30;;;;;;;;;;4969065;28;103904;-74
2022/04/01 11:07:07;;;;;;;25.58;13.82;;;;;;;;;;4969212;28;101528;-73
2022/04/01 11:09:45;;;;;;;19.90;12.23;;;;;;;;;;4967739;28;102089;-74
2022/04/01 11:12:15;;;;;;;17.95;11.40;;;;;;;;;;4968410;28;100149;-74
2022/04/01 11:17:27;;;;;;;19.70;12.10;;;;;;;;;;4969021;28;100244;-74
2022/04/01 11:20:32;;;;;;;19.95;12.27;;;;;;;;;;4935592;28;102336;-73
2022/04/01 11:23:06;;;;;;;21.35;13.88;;;;;;;;;;4960703;28;100032;-73
2022/04/01 11:25:33;;;;;;;17.85;11.82;;;;;;;;;;4969490;28;100092;-73
2022/04/01 11:28:14;;;;;;;20.13;11.52;;;;;;;;;;4967442;28;100548;-73
2022/04/01 11:31:06;;;;;;;18.75;11.88;;;;;;;;;;4952974;28;103130;-73
2022/04/01 11:33:33;;;;;;;20.85;12.32;;;;;;;;;;4948106;28;100186;-73
2022/04/01 11:36:00;;;;;;;19.90;11.65;;;;;;;;;;4939231;28;100099;-73
2022/04/01 11:38:29;;;;;;;19.70;12.43;;;;;;;;;;4972497;28;100363;-73
2022/04/01 11:40:58;;;;;;;21.90;12.70;;;;;;;;;;4972935;28;100577;-73
2022/04/01 11:43:26;;;;;;;20.67;11.57;;;;;;;;;;4955031;28;100093;-73
2022/04/01 11:46:02;;;;;;;15.63;10.15;;;;;;;;;;4972358;28;100183;-74
2022/04/01 11:48:37;;;;;;;18.02;11.95;;;;;;;;;;4955425;28;100288;-73
2022/04/01 11:51:10;;;;;;;19.40;11.85;;;;;;;;;;4955488;28;100534;-74
2022/04/01 11:53:47;;;;;;;23.50;12.23;;;;;;;;;;4955024;28;100167;-74
2022/04/01 11:56:14;;;;;;;19.40;12.38;;;;;;;;;;4972249;28;100109;-73
2022/04/01 11:58:46;;;;;;;19.70;12.80;;;;;;;;;;4948253;28;101457;-74
2022/04/01 12:01:14;;;;;;;20.35;12.63;;;;;;;;;;4969741;28;100679;-74
2022/04/01 12:03:40;;;;;;;17.73;11.82;;;;;;;;;;4954426;28;100258;-72
2022/04/01 12:09:06;;;;;;;17.35;10.15;;;;;;;;;;4972344;28;100838;-71
2022/04/01 12:11:40;;;;;;;18.77;11.77;;;;;;;;;;4972221;28;100564;-71
2022/04/01 12:14:08;;;;;;;14.57;9.38;;;;;;;;;;4971352;28;100079;-72
2022/04/01 12:16:40;;;;;;;15.88;10.48;;;;;;;;;;4972357;28;99998;-72
2022/04/01 12:19:07;;;;;;;15.40;10.20;;;;;;;;;;4953560;28;100862;-72
2022/04/01 12:21:33;;;;;;;18.35;10.60;;;;;;;;;;4954539;28;100576;-72
2022/04/01 12:24:02;;;;;;;16.27;10.75;;;;;;;;;;4954035;28;100363;-72
2022/04/01 12:26:29;;;;;;;15.95;10.60;;;;;;;;;;4954973;28;100189;-73
2022/04/01 12:28:56;;;;;;;19.45;12.45;;;;;;;;;;4954286;28;101581;-73
2022/04/01 12:31:24;;;;;;;19.67;12.32;;;;;;;;;;4972098;28;101817;-73
2022/04/01 12:33:52;;;;;;;20.38;12.48;;;;;;;;;;4938063;28;100145;-72
2022/04/01 12:36:56;;;;;;;18.45;11.50;;;;;;;;;;4938505;28;100418;-72
2022/04/01 12:39:32;;;;;;;18.85;11.85;;;;;;;;;;4963764;28;100337;-73
2022/04/01 12:42:10;;;;;;;17.80;11.43;;;;;;;;;;4954320;28;100589;-73
2022/04/01 12:44:41;;;;;;;19.23;12.25;;;;;;;;;;4937018;28;100113;-73
2022/04/01 12:47:08;;;;;;;14.98;10.20;;;;;;;;;;4939234;28;100244;-73
2022/04/01 12:49:35;;;;;;;18.13;11.20;;;;;;;;;;4954296;28;100397;-73
2022/04/01 12:52:03;;;;;;;17.60;11.23;;;;;;;;;;4971347;28;101321;-72
2022/04/01 12:54:31;;;;;;;17.67;11.90;;;;;;;;;;4954236;28;100236;-72
2022/04/01 12:57:11;;;;;;;14.63;9.48;;;;;;;;;;4954338;28;100098;-72
2022/04/01 12:59:40;;;;;;;15.23;10.65;;;;;;;;;;4971057;28;100341;-73
2022/04/01 13:02:17;;;;;;;15.23;10.50;;;;;;;;;;4954092;28;100683;-73
2022/04/01 13:04:49;;;;;;;16.17;10.18;;;;;;;;;;4953263;28;100153;-73
2022/04/01 13:07:18;;;;;;;18.10;10.77;;;;;;;;;;4970662;28;100033;-73
2022/04/01 13:09:52;;;;;;;20.25;12.38;;;;;;;;;;4934811;28;101444;-72
2022/04/01 13:12:31;;;;;;;18.17;10.68;;;;;;;;;;4971181;28;101077;-73
2022/04/01 13:15:00;;;;;;;16.33;11.02;;;;;;;;;;4971220;28;100161;-73
2022/04/01 13:17:27;;;;;;;17.63;11.98;;;;;;;;;;4954075;28;100019;-73
2022/04/01 13:19:54;;;;;;;18.17;11.80;;;;;;;;;;4953886;28;100304;-73
2022/04/01 13:22:21;;;;;;;17.95;10.07;;;;;;;;;;4953977;28;100718;-73
2022/04/01 13:24:48;;;;;;;16.25;11.10;;;;;;;;;;4937574;28;100074;-73
2022/04/01 13:27:20;;;;;;;15.48;9.57;;;;;;;;;;4954553;28;100169;-73
2022/04/01 13:29:47;;;;;;;16.77;10.13;;;;;;;;;;4905013;28;100334;-73
2022/04/01 13:32:15;;;;;;;16.45;9.55;;;;;;;;;;4937379;28;100592;-73
2022/04/01 13:34:46;;;;;;;15.80;9.82;;;;;;;;;;4952356;28;99877;-73
2022/04/01 13:37:13;;;;;;;15.75;10.30;;;;;;;;;;4920684;28;100182;-73
2022/04/01 13:39:40;;;;;;;16.73;10.90;;;;;;;;;;4968120;28;102566;-73
2022/04/01 13:42:07;;;;;;;17.50;12.00;;;;;;;;;;4970539;28;100560;-73
2022/04/01 13:44:34;;;;;;;19.80;11.82;;;;;;;;;;4952908;28;100232;-73
2022/04/01 13:47:01;;;;;;;19.88;11.70;;;;;;;;;;4921861;28;100007;-73
2022/04/01 13:49:28;;;;;;;19.55;12.48;;;;;;;;;;4953543;28;100429;-73
2022/04/01 13:51:55;;;;;;;21.10;12.35;;;;;;;;;;4970339;28;100720;-73
2022/04/01 13:54:22;;;;;;;22.42;13.40;;;;;;;;;;4970011;28;100182;-73
2022/04/01 13:56:50;;;;;;;19.55;11.90;;;;;;;;;;4952031;28;100213;-73
2022/04/01 13:59:18;;;;;;;20.35;13.57;;;;;;;;;;4968813;28;100988;-73
2022/04/01 14:01:45;;;;;;;19.92;12.82;;;;;;;;;;4952770;28;100105;-73
2022/04/01 14:04:12;;;;;;;23.98;12.32;;;;;;;;;;4932909;28;100138;-73
2022/04/01 14:06:39;;;;;;;19.30;13.38;;;;;;;;;;4948333;28;100211;-73
2022/04/01 14:09:07;;;;;;;20.65;13.75;;;;;;;;;;4949235;28;101424;-73
2022/04/01 14:11:54;;;;;;;21.88;12.98;;;;;;;;;;4950119;28;100662;-72
2022/04/01 14:14:20;;;;;;;20.23;12.60;;;;;;;;;;4950026;28;100162;-72
2022/04/01 14:16:47;;;;;;;20.40;11.55;;;;;;;;;;4949506;28;99970;-73
2022/04/01 14:19:16;;;;;;;25.92;16.10;;;;;;;;;;4950210;28;100325;-72
2022/04/01 14:21:43;;;;;;;23.25;13.57;;;;;;;;;;4950451;28;100749;-72
2022/04/01 14:24:10;;;;;;;23.30;13.63;;;;;;;;;;4949886;28;100078;-73
2022/04/01 14:26:37;;;;;;;20.55;12.35;;;;;;;;;;4933279;28;101404;-73
2022/04/01 14:31:58;;;;;;;20.52;12.07;;;;;;;;;;4935659;28;100715;-72
2022/04/01 14:34:36;;;;;;;19.50;13.10;;;;;;;;;;4950898;28;100004;-73
2022/04/01 14:37:04;;;;;;;24.15;14.90;;;;;;;;;;4951066;28;99960;-72
2022/04/01 14:39:31;;;;;;;26.95;15.15;;;;;;;;;;4948918;28;101582;-72
2022/04/01 14:41:58;;;;;;;22.52;14.70;;;;;;;;;;4948438;28;100884;-73
2022/04/01 14:44:25;;;;;;;27.63;15.50;;;;;;;;;;4948849;28;100008;-73
2022/04/01 14:46:52;;;;;;;23.58;14.50;;;;;;;;;;4950415;28;99822;-73
2022/04/01 14:49:19;;;;;;;19.92;13.20;;;;;;;;;;4950351;28;100316;-73
2022/04/01 14:51:46;;;;;;;23.60;14.15;;;;;;;;;;4950019;28;100547;-73
2022/04/01 14:54:14;;;;;;;29.23;15.27;;;;;;;;;;4950291;28;100060;-73
2022/04/01 14:56:41;;;;;;;23.98;14.25;;;;;;;;;;4948910;28;100105;-73
2022/04/01 14:59:08;;;;;;;26.13;15.15;;;;;;;;;;4950048;28;100925;-73
2022/04/01 15:01:35;;;;;;;25.80;13.75;;;;;;;;;;4950132;28;100729;-72
2022/04/01 15:04:02;;;;;;;23.42;13.80;;;;;;;;;;4955000;28;100110;-72
2022/04/01 15:06:39;;;;;;;22.10;12.73;;;;;;;;;;4969075;28;100131;-71
2022/04/01 15:09:06;;;;;;;26.67;14.65;;;;;;;;;;4968984;28;100765;-72
2022/04/01 15:11:33;;;;;;;24.48;13.23;;;;;;;;;;4969425;28;100626;-73